sensor_id;sensor_type;location;lat;lon;timestamp;P1;durP1;ratioP1;P2;durP2;ratioP2
24277;SDS011;12394;42.692;23.314;2022-09-09T00:04:15;15.20;;;8.80;;
24277;SDS011;12394;42.692;23.314;2022-09-09T00:06:46;11.60;;;8.70;;
24277;SDS011;12394;42.692;23.314;2022-09-09T00:09:16;14.07;;;9.30;;
24277;SDS011;12394;42.692;23.314;2022-09-09T00:11:51;12.00;;;9.43;;
24277;SDS011;12394;42.692;23.314;2022-09-09T00:16:55;13.97;;;9.20;;
24277;SDS011;12394;42.692;23.314;2022-09-09T00:19:31;10.70;;;8.23;;
24277;SDS011;12394;42.692;23.314;2022-09-09T00:24:36;13.37;;;8.33;;
24277;SDS011;12394;42.692;23.314;2022-09-09T00:30:12;10.77;;;8.97;;
24277;SDS011;12394;42.692;23.314;2022-09-09T00:32:37;12.53;;;8.73;;
24277;SDS011;12394;42.692;23.314;2022-09-09T00:35:04;14.57;;;8.67;;
24277;SDS011;12394;42.692;23.314;2022-09-09T00:37:37;12.83;;;9.40;;
24277;SDS011;12394;42.692;23.314;2022-09-09T00:40:07;13.20;;;8.70;;
24277;SDS011;12394;42.692;23.314;2022-09-09T00:42:40;10.70;;;8.33;;
24277;SDS011;12394;42.692;23.314;2022-09-09T00:57:45;14.53;;;9.33;;
24277;SDS011;12394;42.692;23.314;2022-09-09T01:00:24;12.27;;;9.07;;
24277;SDS011;12394;42.692;23.314;2022-09-09T01:05:18;14.37;;;9.47;;
24277;SDS011;12394;42.692;23.314;2022-09-09T01:07:46;12.60;;;9.23;;
24277;SDS011;12394;42.692;23.314;2022-09-09T01:12:53;12.63;;;8.97;;
24277;SDS011;12394;42.692;23.314;2022-09-09T01:15:22;11.33;;;8.77;;
24277;SDS011;12394;42.692;23.314;2022-09-09T01:20:16;10.10;;;9.07;;
24277;SDS011;12394;42.692;23.314;2022-09-09T01:23:04;14.40;;;9.87;;
24277;SDS011;12394;42.692;23.314;2022-09-09T01:28:22;14.07;;;9.50;;
24277;SDS011;12394;42.692;23.314;2022-09-09T01:30:50;13.60;;;9.53;;
24277;SDS011;12394;42.692;23.314;2022-09-09T01:33:16;15.73;;;9.50;;
24277;SDS011;12394;42.692;23.314;2022-09-09T01:38:13;10.87;;;9.00;;
24277;SDS011;12394;42.692;23.314;2022-09-09T01:40:39;12.00;;;9.53;;
24277;SDS011;12394;42.692;23.314;2022-09-09T01:43:04;10.90;;;8.83;;
24277;SDS011;12394;42.692;23.314;2022-09-09T01:45:30;10.70;;;9.60;;
24277;SDS011;12394;42.692;23.314;2022-09-09T01:47:55;10.07;;;9.07;;
24277;SDS011;12394;42.692;23.314;2022-09-09T01:50:21;12.73;;;9.37;;
24277;SDS011;12394;42.692;23.314;2022-09-09T01:52:48;12.33;;;9.60;;
24277;SDS011;12394;42.692;23.314;2022-09-09T01:55:15;14.33;;;9.23;;
24277;SDS011;12394;42.692;23.314;2022-09-09T01:57:56;12.00;;;8.70;;
24277;SDS011;12394;42.692;23.314;2022-09-09T02:00:23;11.50;;;8.67;;
24277;SDS011;12394;42.692;23.314;2022-09-09T02:07:49;14.80;;;9.73;;
24277;SDS011;12394;42.692;23.314;2022-09-09T02:10:19;13.13;;;9.60;;
24277;SDS011;12394;42.692;23.314;2022-09-09T02:12:51;10.30;;;8.57;;
24277;SDS011;12394;42.692;23.314;2022-09-09T02:15:32;9.53;;;8.37;;
24277;SDS011;12394;42.692;23.314;2022-09-09T02:17:59;13.50;;;8.77;;
24277;SDS011;12394;42.692;23.314;2022-09-09T02:20:26;10.77;;;9.10;;
24277;SDS011;12394;42.692;23.314;2022-09-09T02:22:52;11.13;;;9.37;;
24277;SDS011;12394;42.692;23.314;2022-09-09T02:25:19;11.50;;;8.60;;
24277;SDS011;12394;42.692;23.314;2022-09-09T02:27:45;11.33;;;9.17;;
24277;SDS011;12394;42.692;23.314;2022-09-09T02:30:12;11.47;;;9.20;;
24277;SDS011;12394;42.692;23.314;2022-09-09T02:32:37;12.73;;;9.50;;
24277;SDS011;12394;42.692;23.314;2022-09-09T02:35:08;19.17;;;10.43;;
24277;SDS011;12394;42.692;23.314;2022-09-09T02:37:35;14.63;;;9.47;;
24277;SDS011;12394;42.692;23.314;2022-09-09T02:40:05;13.33;;;9.90;;
24277;SDS011;12394;42.692;23.314;2022-09-09T02:42:31;11.60;;;9.73;;
24277;SDS011;12394;42.692;23.314;2022-09-09T02:44:56;14.57;;;9.67;;
24277;SDS011;12394;42.692;23.314;2022-09-09T02:47:25;15.23;;;10.07;;
24277;SDS011;12394;42.692;23.314;2022-09-09T02:52:38;14.63;;;9.77;;
24277;SDS011;12394;42.692;23.314;2022-09-09T02:55:17;14.63;;;11.17;;
24277;SDS011;12394;42.692;23.314;2022-09-09T02:57:43;14.53;;;9.80;;
24277;SDS011;12394;42.692;23.314;2022-09-09T03:02:47;11.93;;;10.10;;
24277;SDS011;12394;42.692;23.314;2022-09-09T03:05:12;12.67;;;10.60;;
24277;SDS011;12394;42.692;23.314;2022-09-09T03:07:38;11.30;;;10.10;;
24277;SDS011;12394;42.692;23.314;2022-09-09T03:10:04;13.73;;;9.90;;
24277;SDS011;12394;42.692;23.314;2022-09-09T03:12:30;15.50;;;10.63;;
24277;SDS011;12394;42.692;23.314;2022-09-09T03:14:55;12.27;;;10.00;;
24277;SDS011;12394;42.692;23.314;2022-09-09T03:17:20;13.00;;;11.10;;
24277;SDS011;12394;42.692;23.314;2022-09-09T03:19:46;15.40;;;10.47;;
24277;SDS011;12394;42.692;23.314;2022-09-09T03:22:11;12.43;;;10.93;;
24277;SDS011;12394;42.692;23.314;2022-09-09T03:24:38;16.13;;;10.13;;
24277;SDS011;12394;42.692;23.314;2022-09-09T03:27:03;13.33;;;11.33;;
24277;SDS011;12394;42.692;23.314;2022-09-09T03:29:29;13.77;;;10.97;;
24277;SDS011;12394;42.692;23.314;2022-09-09T03:31:54;13.40;;;9.57;;
24277;SDS011;12394;42.692;23.314;2022-09-09T03:34:19;13.17;;;10.50;;
24277;SDS011;12394;42.692;23.314;2022-09-09T03:36:44;16.23;;;10.53;;
24277;SDS011;12394;42.692;23.314;2022-09-09T03:39:10;16.83;;;11.33;;
24277;SDS011;12394;42.692;23.314;2022-09-09T03:41:35;17.27;;;11.17;;
24277;SDS011;12394;42.692;23.314;2022-09-09T03:44:02;15.50;;;10.63;;
24277;SDS011;12394;42.692;23.314;2022-09-09T03:46:27;11.93;;;9.50;;
24277;SDS011;12394;42.692;23.314;2022-09-09T03:48:52;14.97;;;10.77;;
24277;SDS011;12394;42.692;23.314;2022-09-09T03:51:18;12.33;;;10.40;;
24277;SDS011;12394;42.692;23.314;2022-09-09T03:53:43;13.07;;;10.33;;
24277;SDS011;12394;42.692;23.314;2022-09-09T03:56:09;15.90;;;10.87;;
24277;SDS011;12394;42.692;23.314;2022-09-09T03:58:35;14.60;;;10.47;;
24277;SDS011;12394;42.692;23.314;2022-09-09T04:01:02;13.90;;;11.10;;
24277;SDS011;12394;42.692;23.314;2022-09-09T04:03:28;16.70;;;10.50;;
24277;SDS011;12394;42.692;23.314;2022-09-09T04:05:55;12.90;;;10.90;;
24277;SDS011;12394;42.692;23.314;2022-09-09T04:08:20;12.63;;;11.13;;
24277;SDS011;12394;42.692;23.314;2022-09-09T04:10:46;13.60;;;10.30;;
24277;SDS011;12394;42.692;23.314;2022-09-09T04:13:12;17.57;;;10.67;;
24277;SDS011;12394;42.692;23.314;2022-09-09T04:15:41;14.97;;;11.03;;
24277;SDS011;12394;42.692;23.314;2022-09-09T04:18:06;13.60;;;10.73;;
24277;SDS011;12394;42.692;23.314;2022-09-09T04:20:31;14.23;;;11.10;;
24277;SDS011;12394;42.692;23.314;2022-09-09T04:22:57;13.53;;;10.50;;
24277;SDS011;12394;42.692;23.314;2022-09-09T04:25:23;14.23;;;10.37;;
24277;SDS011;12394;42.692;23.314;2022-09-09T04:27:52;16.47;;;11.13;;
24277;SDS011;12394;42.692;23.314;2022-09-09T04:30:19;14.50;;;10.57;;
24277;SDS011;12394;42.692;23.314;2022-09-09T04:32:44;13.70;;;9.80;;
24277;SDS011;12394;42.692;23.314;2022-09-09T04:35:09;16.67;;;11.10;;
24277;SDS011;12394;42.692;23.314;2022-09-09T04:37:34;12.20;;;10.37;;
24277;SDS011;12394;42.692;23.314;2022-09-09T04:40:00;15.27;;;10.80;;
24277;SDS011;12394;42.692;23.314;2022-09-09T04:42:27;16.50;;;10.63;;
24277;SDS011;12394;42.692;23.314;2022-09-09T04:44:52;12.50;;;10.77;;
24277;SDS011;12394;42.692;23.314;2022-09-09T04:47:17;20.83;;;11.40;;
24277;SDS011;12394;42.692;23.314;2022-09-09T04:49:43;12.80;;;9.70;;
24277;SDS011;12394;42.692;23.314;2022-09-09T04:52:27;12.53;;;9.70;;
24277;SDS011;12394;42.692;23.314;2022-09-09T04:54:52;13.07;;;10.57;;
24277;SDS011;12394;42.692;23.314;2022-09-09T04:57:19;15.33;;;10.30;;
24277;SDS011;12394;42.692;23.314;2022-09-09T04:59:44;14.13;;;10.17;;
24277;SDS011;12394;42.692;23.314;2022-09-09T05:02:10;13.57;;;11.23;;
24277;SDS011;12394;42.692;23.314;2022-09-09T05:04:36;15.40;;;10.97;;
24277;SDS011;12394;42.692;23.314;2022-09-09T05:07:01;16.47;;;10.93;;
24277;SDS011;12394;42.692;23.314;2022-09-09T05:09:26;12.23;;;10.03;;
24277;SDS011;12394;42.692;23.314;2022-09-09T05:11:51;13.97;;;10.40;;
24277;SDS011;12394;42.692;23.314;2022-09-09T05:14:17;14.17;;;10.17;;
24277;SDS011;12394;42.692;23.314;2022-09-09T05:16:44;12.17;;;10.67;;
24277;SDS011;12394;42.692;23.314;2022-09-09T05:19:09;10.70;;;8.53;;
24277;SDS011;12394;42.692;23.314;2022-09-09T05:21:35;11.03;;;8.87;;
24277;SDS011;12394;42.692;23.314;2022-09-09T05:24:01;11.80;;;9.53;;
24277;SDS011;12394;42.692;23.314;2022-09-09T05:26:26;12.77;;;10.20;;
24277;SDS011;12394;42.692;23.314;2022-09-09T05:28:51;13.10;;;9.13;;
24277;SDS011;12394;42.692;23.314;2022-09-09T05:31:17;13.53;;;10.37;;
24277;SDS011;12394;42.692;23.314;2022-09-09T05:33:43;13.67;;;9.43;;
24277;SDS011;12394;42.692;23.314;2022-09-09T05:36:11;13.67;;;9.83;;
24277;SDS011;12394;42.692;23.314;2022-09-09T05:38:38;15.17;;;11.23;;
24277;SDS011;12394;42.692;23.314;2022-09-09T05:41:04;17.23;;;11.53;;
24277;SDS011;12394;42.692;23.314;2022-09-09T05:43:29;15.83;;;10.20;;
24277;SDS011;12394;42.692;23.314;2022-09-09T05:46:00;16.13;;;9.30;;
24277;SDS011;12394;42.692;23.314;2022-09-09T05:48:32;14.70;;;10.83;;
24277;SDS011;12394;42.692;23.314;2022-09-09T05:50:58;12.67;;;10.33;;
24277;SDS011;12394;42.692;23.314;2022-09-09T05:53:24;16.60;;;12.97;;
24277;SDS011;12394;42.692;23.314;2022-09-09T05:55:50;16.03;;;11.63;;
24277;SDS011;12394;42.692;23.314;2022-09-09T05:58:15;15.33;;;11.67;;
24277;SDS011;12394;42.692;23.314;2022-09-09T06:00:42;14.00;;;10.30;;
24277;SDS011;12394;42.692;23.314;2022-09-09T06:03:12;11.03;;;9.37;;
24277;SDS011;12394;42.692;23.314;2022-09-09T06:05:37;16.67;;;11.47;;
24277;SDS011;12394;42.692;23.314;2022-09-09T06:08:03;16.63;;;10.97;;
24277;SDS011;12394;42.692;23.314;2022-09-09T06:10:28;14.20;;;10.53;;
24277;SDS011;12394;42.692;23.314;2022-09-09T06:12:53;13.17;;;10.67;;
24277;SDS011;12394;42.692;23.314;2022-09-09T06:15:19;14.70;;;10.87;;
24277;SDS011;12394;42.692;23.314;2022-09-09T06:17:44;12.03;;;10.73;;
24277;SDS011;12394;42.692;23.314;2022-09-09T06:20:10;19.13;;;11.30;;
24277;SDS011;12394;42.692;23.314;2022-09-09T06:22:35;15.57;;;11.23;;
24277;SDS011;12394;42.692;23.314;2022-09-09T06:25:00;13.40;;;10.20;;
24277;SDS011;12394;42.692;23.314;2022-09-09T06:27:27;13.93;;;10.80;;
24277;SDS011;12394;42.692;23.314;2022-09-09T06:29:52;11.10;;;9.97;;
24277;SDS011;12394;42.692;23.314;2022-09-09T06:32:17;17.30;;;11.53;;
24277;SDS011;12394;42.692;23.314;2022-09-09T06:34:42;14.57;;;10.73;;
24277;SDS011;12394;42.692;23.314;2022-09-09T06:37:08;17.63;;;10.20;;
24277;SDS011;12394;42.692;23.314;2022-09-09T06:39:34;13.07;;;9.03;;
24277;SDS011;12394;42.692;23.314;2022-09-09T06:41:59;12.33;;;8.57;;
24277;SDS011;12394;42.692;23.314;2022-09-09T06:44:25;14.17;;;8.63;;
24277;SDS011;12394;42.692;23.314;2022-09-09T06:46:51;12.17;;;7.43;;
24277;SDS011;12394;42.692;23.314;2022-09-09T06:49:17;9.43;;;7.53;;
24277;SDS011;12394;42.692;23.314;2022-09-09T06:51:42;9.73;;;7.50;;
24277;SDS011;12394;42.692;23.314;2022-09-09T06:54:08;10.87;;;6.83;;
24277;SDS011;12394;42.692;23.314;2022-09-09T06:56:35;12.10;;;6.20;;
24277;SDS011;12394;42.692;23.314;2022-09-09T06:59:01;8.40;;;6.13;;
24277;SDS011;12394;42.692;23.314;2022-09-09T07:01:29;14.30;;;7.30;;
24277;SDS011;12394;42.692;23.314;2022-09-09T07:03:56;9.80;;;6.67;;
24277;SDS011;12394;42.692;23.314;2022-09-09T07:06:26;8.17;;;6.10;;
24277;SDS011;12394;42.692;23.314;2022-09-09T07:08:57;7.43;;;5.20;;
24277;SDS011;12394;42.692;23.314;2022-09-09T07:11:23;9.13;;;6.00;;
24277;SDS011;12394;42.692;23.314;2022-09-09T07:13:50;6.83;;;6.17;;
24277;SDS011;12394;42.692;23.314;2022-09-09T07:16:16;6.43;;;5.30;;
24277;SDS011;12394;42.692;23.314;2022-09-09T07:18:42;5.67;;;5.17;;
24277;SDS011;12394;42.692;23.314;2022-09-09T07:21:09;11.07;;;4.97;;
24277;SDS011;12394;42.692;23.314;2022-09-09T07:23:34;7.20;;;4.77;;
24277;SDS011;12394;42.692;23.314;2022-09-09T07:26:00;6.13;;;5.53;;
24277;SDS011;12394;42.692;23.314;2022-09-09T07:28:26;5.90;;;5.13;;
24277;SDS011;12394;42.692;23.314;2022-09-09T07:30:56;7.00;;;5.03;;
24277;SDS011;12394;42.692;23.314;2022-09-09T07:33:22;5.47;;;4.97;;
24277;SDS011;12394;42.692;23.314;2022-09-09T07:35:47;5.13;;;4.63;;
24277;SDS011;12394;42.692;23.314;2022-09-09T07:38:12;7.23;;;5.43;;
24277;SDS011;12394;42.692;23.314;2022-09-09T07:40:38;6.87;;;5.40;;
24277;SDS011;12394;42.692;23.314;2022-09-09T07:43:04;5.17;;;4.67;;
24277;SDS011;12394;42.692;23.314;2022-09-09T07:45:29;7.17;;;4.93;;
24277;SDS011;12394;42.692;23.314;2022-09-09T07:47:55;6.97;;;4.50;;
24277;SDS011;12394;42.692;23.314;2022-09-09T07:50:21;6.17;;;5.30;;
24277;SDS011;12394;42.692;23.314;2022-09-09T07:52:48;4.77;;;4.27;;
24277;SDS011;12394;42.692;23.314;2022-09-09T07:55:13;5.13;;;4.63;;
24277;SDS011;12394;42.692;23.314;2022-09-09T07:57:39;5.63;;;4.53;;
24277;SDS011;12394;42.692;23.314;2022-09-09T08:00:05;5.93;;;4.70;;
24277;SDS011;12394;42.692;23.314;2022-09-09T08:02:30;10.63;;;6.97;;
24277;SDS011;12394;42.692;23.314;2022-09-09T08:04:56;6.77;;;4.97;;
24277;SDS011;12394;42.692;23.314;2022-09-09T08:07:21;5.87;;;5.30;;
24277;SDS011;12394;42.692;23.314;2022-09-09T08:09:47;7.60;;;4.60;;
24277;SDS011;12394;42.692;23.314;2022-09-09T08:12:12;5.90;;;4.83;;
24277;SDS011;12394;42.692;23.314;2022-09-09T08:14:38;5.57;;;4.87;;
24277;SDS011;12394;42.692;23.314;2022-09-09T08:17:04;6.27;;;4.90;;
24277;SDS011;12394;42.692;23.314;2022-09-09T08:19:29;9.13;;;6.33;;
24277;SDS011;12394;42.692;23.314;2022-09-09T08:21:55;6.17;;;5.37;;
24277;SDS011;12394;42.692;23.314;2022-09-09T08:24:20;7.33;;;5.17;;
24277;SDS011;12394;42.692;23.314;2022-09-09T08:26:47;5.60;;;4.73;;
24277;SDS011;12394;42.692;23.314;2022-09-09T08:29:14;6.53;;;4.90;;
24277;SDS011;12394;42.692;23.314;2022-09-09T08:31:40;5.93;;;4.50;;
24277;SDS011;12394;42.692;23.314;2022-09-09T08:34:07;6.30;;;4.53;;
24277;SDS011;12394;42.692;23.314;2022-09-09T08:36:34;7.30;;;5.60;;
24277;SDS011;12394;42.692;23.314;2022-09-09T08:38:59;6.30;;;5.40;;
24277;SDS011;12394;42.692;23.314;2022-09-09T08:43:59;7.60;;;4.67;;
24277;SDS011;12394;42.692;23.314;2022-09-09T08:46:39;6.30;;;5.00;;
24277;SDS011;12394;42.692;23.314;2022-09-09T08:51:36;9.73;;;4.83;;
24277;SDS011;12394;42.692;23.314;2022-09-09T08:54:02;8.57;;;5.07;;
24277;SDS011;12394;42.692;23.314;2022-09-09T08:56:28;6.67;;;5.47;;
24277;SDS011;12394;42.692;23.314;2022-09-09T08:58:56;6.93;;;4.87;;
24277;SDS011;12394;42.692;23.314;2022-09-09T09:11:55;10.47;;;5.23;;
24277;SDS011;12394;42.692;23.314;2022-09-09T09:14:26;7.57;;;4.57;;
24277;SDS011;12394;42.692;23.314;2022-09-09T09:19:23;6.43;;;4.88;;
24277;SDS011;12394;42.692;23.314;2022-09-09T09:21:52;8.25;;;5.72;;
24277;SDS011;12394;42.692;23.314;2022-09-09T09:24:30;6.93;;;5.10;;
24277;SDS011;12394;42.692;23.314;2022-09-09T09:27:00;6.07;;;5.00;;
24277;SDS011;12394;42.692;23.314;2022-09-09T09:29:32;8.17;;;5.00;;
24277;SDS011;12394;42.692;23.314;2022-09-09T09:31:58;9.97;;;6.30;;
24277;SDS011;12394;42.692;23.314;2022-09-09T09:34:24;7.97;;;5.23;;
24277;SDS011;12394;42.692;23.314;2022-09-09T09:36:54;6.87;;;5.37;;
24277;SDS011;12394;42.692;23.314;2022-09-09T09:39:29;5.67;;;5.13;;
24277;SDS011;12394;42.692;23.314;2022-09-09T09:41:55;6.30;;;4.97;;
24277;SDS011;12394;42.692;23.314;2022-09-09T09:44:28;8.63;;;5.27;;
24277;SDS011;12394;42.692;23.314;2022-09-09T09:47:05;7.50;;;5.00;;
24277;SDS011;12394;42.692;23.314;2022-09-09T09:49:30;6.67;;;4.70;;
24277;SDS011;12394;42.692;23.314;2022-09-09T09:51:59;10.80;;;6.13;;
24277;SDS011;12394;42.692;23.314;2022-09-09T09:54:28;7.80;;;5.50;;
24277;SDS011;12394;42.692;23.314;2022-09-09T09:56:54;9.43;;;5.63;;
24277;SDS011;12394;42.692;23.314;2022-09-09T09:59:21;8.20;;;4.97;;
24277;SDS011;12394;42.692;23.314;2022-09-09T10:01:46;7.63;;;5.50;;
24277;SDS011;12394;42.692;23.314;2022-09-09T10:04:19;5.77;;;5.10;;
24277;SDS011;12394;42.692;23.314;2022-09-09T10:06:45;8.63;;;5.17;;
24277;SDS011;12394;42.692;23.314;2022-09-09T10:09:24;8.67;;;5.53;;
24277;SDS011;12394;42.692;23.314;2022-09-09T10:14:22;7.60;;;6.53;;
24277;SDS011;12394;42.692;23.314;2022-09-09T10:19:25;7.50;;;6.03;;
24277;SDS011;12394;42.692;23.314;2022-09-09T10:22:03;12.83;;;6.10;;
24277;SDS011;12394;42.692;23.314;2022-09-09T10:37:34;6.73;;;5.50;;
24277;SDS011;12394;42.692;23.314;2022-09-09T10:42:49;7.97;;;5.40;;
24277;SDS011;12394;42.692;23.314;2022-09-09T10:45:40;10.80;;;6.17;;
24277;SDS011;12394;42.692;23.314;2022-09-09T10:48:24;7.17;;;6.10;;
24277;SDS011;12394;42.692;23.314;2022-09-09T10:51:02;14.87;;;6.57;;
24277;SDS011;12394;42.692;23.314;2022-09-09T10:56:13;12.97;;;5.73;;
24277;SDS011;12394;42.692;23.314;2022-09-09T11:01:16;12.43;;;6.93;;
24277;SDS011;12394;42.692;23.314;2022-09-09T11:03:43;7.90;;;6.57;;
24277;SDS011;12394;42.692;23.314;2022-09-09T11:06:14;11.93;;;7.23;;
24277;SDS011;12394;42.692;23.314;2022-09-09T11:08:40;10.27;;;7.00;;
24277;SDS011;12394;42.692;23.314;2022-09-09T11:16:16;8.40;;;6.93;;
24277;SDS011;12394;42.692;23.314;2022-09-09T11:18:44;12.77;;;7.80;;
24277;SDS011;12394;42.692;23.314;2022-09-09T11:21:29;10.40;;;6.27;;
24277;SDS011;12394;42.692;23.314;2022-09-09T11:24:00;7.73;;;6.40;;
24277;SDS011;12394;42.692;23.314;2022-09-09T11:26:41;10.50;;;6.20;;
24277;SDS011;12394;42.692;23.314;2022-09-09T11:41:55;11.87;;;7.10;;
24277;SDS011;12394;42.692;23.314;2022-09-09T11:44:30;9.97;;;7.17;;
24277;SDS011;12394;42.692;23.314;2022-09-09T11:46:55;11.37;;;6.67;;
24277;SDS011;12394;42.692;23.314;2022-09-09T11:54:46;6.53;;;5.93;;
24277;SDS011;12394;42.692;23.314;2022-09-09T11:59:55;8.30;;;6.33;;
24277;SDS011;12394;42.692;23.314;2022-09-09T12:02:25;7.43;;;6.70;;
24277;SDS011;12394;42.692;23.314;2022-09-09T12:07:51;9.67;;;6.10;;
24277;SDS011;12394;42.692;23.314;2022-09-09T12:12:43;13.80;;;6.93;;
24277;SDS011;12394;42.692;23.314;2022-09-09T12:17:44;11.33;;;6.43;;
24277;SDS011;12394;42.692;23.314;2022-09-09T12:20:14;8.47;;;6.07;;
24277;SDS011;12394;42.692;23.314;2022-09-09T12:25:16;11.60;;;6.40;;
24277;SDS011;12394;42.692;23.314;2022-09-09T12:30:11;6.80;;;5.93;;
24277;SDS011;12394;42.692;23.314;2022-09-09T12:32:36;9.07;;;6.23;;
24277;SDS011;12394;42.692;23.314;2022-09-09T12:35:03;8.13;;;5.90;;
24277;SDS011;12394;42.692;23.314;2022-09-09T12:39:58;8.20;;;7.40;;
24277;SDS011;12394;42.692;23.314;2022-09-09T12:42:24;11.60;;;7.47;;
24277;SDS011;12394;42.692;23.314;2022-09-09T12:44:50;11.47;;;7.07;;
24277;SDS011;12394;42.692;23.314;2022-09-09T12:47:16;10.53;;;8.53;;
24277;SDS011;12394;42.692;23.314;2022-09-09T12:49:42;8.30;;;6.87;;
24277;SDS011;12394;42.692;23.314;2022-09-09T12:52:11;9.73;;;7.03;;
24277;SDS011;12394;42.692;23.314;2022-09-09T12:54:42;7.80;;;6.80;;
24277;SDS011;12394;42.692;23.314;2022-09-09T12:57:11;12.27;;;6.63;;
24277;SDS011;12394;42.692;23.314;2022-09-09T12:59:38;10.97;;;7.67;;
24277;SDS011;12394;42.692;23.314;2022-09-09T13:02:23;10.10;;;6.67;;
24277;SDS011;12394;42.692;23.314;2022-09-09T13:04:49;10.50;;;6.80;;
24277;SDS011;12394;42.692;23.314;2022-09-09T13:07:16;8.13;;;7.27;;
24277;SDS011;12394;42.692;23.314;2022-09-09T13:09:41;12.20;;;7.63;;
24277;SDS011;12394;42.692;23.314;2022-09-09T13:12:09;12.20;;;6.13;;
24277;SDS011;12394;42.692;23.314;2022-09-09T13:14:38;8.37;;;4.73;;
24277;SDS011;12394;42.692;23.314;2022-09-09T13:17:04;7.73;;;4.80;;
24277;SDS011;12394;42.692;23.314;2022-09-09T13:19:31;7.13;;;4.90;;
24277;SDS011;12394;42.692;23.314;2022-09-09T13:21:57;8.40;;;5.07;;
24277;SDS011;12394;42.692;23.314;2022-09-09T13:24:27;10.13;;;6.33;;
24277;SDS011;12394;42.692;23.314;2022-09-09T13:29:39;9.10;;;5.37;;
24277;SDS011;12394;42.692;23.314;2022-09-09T13:32:06;9.13;;;5.00;;
24277;SDS011;12394;42.692;23.314;2022-09-09T13:34:33;10.37;;;5.13;;
24277;SDS011;12394;42.692;23.314;2022-09-09T13:37:01;8.77;;;5.57;;
24277;SDS011;12394;42.692;23.314;2022-09-09T13:39:28;8.27;;;4.87;;
24277;SDS011;12394;42.692;23.314;2022-09-09T13:41:53;6.83;;;4.33;;
24277;SDS011;12394;42.692;23.314;2022-09-09T13:44:34;8.50;;;5.23;;
24277;SDS011;12394;42.692;23.314;2022-09-09T13:47:15;13.73;;;5.27;;
24277;SDS011;12394;42.692;23.314;2022-09-09T13:49:42;12.97;;;5.33;;
24277;SDS011;12394;42.692;23.314;2022-09-09T13:52:14;7.37;;;6.40;;
24277;SDS011;12394;42.692;23.314;2022-09-09T13:54:41;7.53;;;6.40;;
24277;SDS011;12394;42.692;23.314;2022-09-09T13:59:59;11.07;;;6.03;;
24277;SDS011;12394;42.692;23.314;2022-09-09T14:02:24;7.10;;;4.97;;
24277;SDS011;12394;42.692;23.314;2022-09-09T14:04:50;9.80;;;5.43;;
24277;SDS011;12394;42.692;23.314;2022-09-09T14:07:19;8.83;;;4.77;;
24277;SDS011;12394;42.692;23.314;2022-09-09T14:09:45;8.63;;;5.10;;
24277;SDS011;12394;42.692;23.314;2022-09-09T14:12:15;10.73;;;4.87;;
24277;SDS011;12394;42.692;23.314;2022-09-09T14:14:41;9.47;;;4.73;;
24277;SDS011;12394;42.692;23.314;2022-09-09T14:17:09;14.87;;;6.07;;
24277;SDS011;12394;42.692;23.314;2022-09-09T14:19:35;8.10;;;6.43;;
24277;SDS011;12394;42.692;23.314;2022-09-09T14:22:02;10.13;;;6.50;;
24277;SDS011;12394;42.692;23.314;2022-09-09T14:24:27;8.90;;;6.63;;
24277;SDS011;12394;42.692;23.314;2022-09-09T14:26:53;10.20;;;6.73;;
24277;SDS011;12394;42.692;23.314;2022-09-09T14:29:18;11.87;;;7.33;;
24277;SDS011;12394;42.692;23.314;2022-09-09T14:31:43;10.53;;;6.70;;
24277;SDS011;12394;42.692;23.314;2022-09-09T14:34:08;7.70;;;6.73;;
24277;SDS011;12394;42.692;23.314;2022-09-09T14:36:36;11.37;;;6.70;;
24277;SDS011;12394;42.692;23.314;2022-09-09T14:39:01;8.27;;;7.03;;
24277;SDS011;12394;42.692;23.314;2022-09-09T14:41:26;12.60;;;7.63;;
24277;SDS011;12394;42.692;23.314;2022-09-09T14:43:52;10.27;;;6.20;;
24277;SDS011;12394;42.692;23.314;2022-09-09T14:46:19;12.03;;;6.80;;
24277;SDS011;12394;42.692;23.314;2022-09-09T14:48:44;11.33;;;6.17;;
24277;SDS011;12394;42.692;23.314;2022-09-09T14:53:35;11.53;;;6.60;;
24277;SDS011;12394;42.692;23.314;2022-09-09T14:56:04;11.03;;;6.90;;
24277;SDS011;12394;42.692;23.314;2022-09-09T14:58:30;10.50;;;7.87;;
24277;SDS011;12394;42.692;23.314;2022-09-09T15:01:01;13.47;;;6.67;;
24277;SDS011;12394;42.692;23.314;2022-09-09T15:03:26;13.33;;;6.93;;
24277;SDS011;12394;42.692;23.314;2022-09-09T15:05:52;8.67;;;6.80;;
24277;SDS011;12394;42.692;23.314;2022-09-09T15:08:17;12.07;;;6.77;;
24277;SDS011;12394;42.692;23.314;2022-09-09T15:10:42;7.83;;;6.43;;
24277;SDS011;12394;42.692;23.314;2022-09-09T15:13:09;8.17;;;6.23;;
24277;SDS011;12394;42.692;23.314;2022-09-09T15:15:34;6.87;;;5.57;;
24277;SDS011;12394;42.692;23.314;2022-09-09T15:18:00;7.00;;;5.90;;
24277;SDS011;12394;42.692;23.314;2022-09-09T15:20:25;9.07;;;5.97;;
24277;SDS011;12394;42.692;23.314;2022-09-09T15:22:51;9.90;;;5.77;;
24277;SDS011;12394;42.692;23.314;2022-09-09T15:25:17;8.10;;;6.07;;
24277;SDS011;12394;42.692;23.314;2022-09-09T15:27:43;6.60;;;5.90;;
24277;SDS011;12394;42.692;23.314;2022-09-09T15:30:09;11.13;;;5.77;;
24277;SDS011;12394;42.692;23.314;2022-09-09T15:32:34;9.90;;;6.43;;
24277;SDS011;12394;42.692;23.314;2022-09-09T15:35:00;10.30;;;6.50;;
24277;SDS011;12394;42.692;23.314;2022-09-09T15:37:26;11.40;;;6.37;;
24277;SDS011;12394;42.692;23.314;2022-09-09T15:39:51;9.67;;;6.40;;
24277;SDS011;12394;42.692;23.314;2022-09-09T15:42:16;11.17;;;6.37;;
24277;SDS011;12394;42.692;23.314;2022-09-09T15:44:42;14.80;;;7.07;;
24277;SDS011;12394;42.692;23.314;2022-09-09T15:47:07;11.13;;;7.57;;
24277;SDS011;12394;42.692;23.314;2022-09-09T15:49:35;10.50;;;7.07;;
24277;SDS011;12394;42.692;23.314;2022-09-09T15:52:00;9.93;;;6.40;;
24277;SDS011;12394;42.692;23.314;2022-09-09T15:54:30;11.47;;;6.30;;
24277;SDS011;12394;42.692;23.314;2022-09-09T15:56:57;8.70;;;6.43;;
24277;SDS011;12394;42.692;23.314;2022-09-09T15:59:23;8.33;;;6.30;;
24277;SDS011;12394;42.692;23.314;2022-09-09T16:01:48;13.90;;;7.43;;
24277;SDS011;12394;42.692;23.314;2022-09-09T16:04:16;13.30;;;7.10;;
24277;SDS011;12394;42.692;23.314;2022-09-09T16:06:48;13.33;;;7.50;;
24277;SDS011;12394;42.692;23.314;2022-09-09T16:09:13;15.93;;;7.33;;
24277;SDS011;12394;42.692;23.314;2022-09-09T16:11:38;12.50;;;7.30;;
24277;SDS011;12394;42.692;23.314;2022-09-09T16:14:04;15.13;;;7.20;;
24277;SDS011;12394;42.692;23.314;2022-09-09T16:16:31;12.83;;;7.87;;
24277;SDS011;12394;42.692;23.314;2022-09-09T16:18:57;10.43;;;8.03;;
24277;SDS011;12394;42.692;23.314;2022-09-09T16:21:27;14.10;;;7.80;;
24277;SDS011;12394;42.692;23.314;2022-09-09T16:23:54;21.07;;;9.10;;
24277;SDS011;12394;42.692;23.314;2022-09-09T16:26:20;14.17;;;8.50;;
24277;SDS011;12394;42.692;23.314;2022-09-09T16:28:45;10.83;;;7.83;;
24277;SDS011;12394;42.692;23.314;2022-09-09T16:31:15;10.53;;;7.17;;
24277;SDS011;12394;42.692;23.314;2022-09-09T16:33:41;14.93;;;7.60;;
24277;SDS011;12394;42.692;23.314;2022-09-09T16:36:07;10.33;;;7.00;;
24277;SDS011;12394;42.692;23.314;2022-09-09T16:38:33;13.97;;;8.20;;
24277;SDS011;12394;42.692;23.314;2022-09-09T16:40:59;15.80;;;8.43;;
24277;SDS011;12394;42.692;23.314;2022-09-09T16:43:24;10.03;;;7.43;;
24277;SDS011;12394;42.692;23.314;2022-09-09T16:45:49;14.30;;;7.70;;